Time;durP1;ratioP1;P1;durP2;ratioP2;P2;SDS_P1;SDS_P2;PMS_P1;PMS_P2;Temp;Humidity;BMP_temperature;BMP_pressure;BME280_temperature;BME280_humidity;BME280_pressure;Samples;Min_cycle;Max_cycle;Signal;HPM_P1;HPM_P2
2022/02/01 00:02:16;;;;;;;38.50;16.38;;;2.50;99.90;;;;;;5101434;27;20304;-53
2022/02/01 00:07:25;;;;;;;37.15;18.08;;;2.30;99.90;;;;;;5101170;28;20218;-49
2022/02/01 00:12:42;;;;;;;34.50;16.77;;;2.30;99.90;;;;;;5100793;28;20203;-48
2022/02/01 00:15:40;;;;;;;34.75;17.63;;;2.20;99.90;;;;;;5100194;28;20227;-51
2022/02/01 00:18:15;;;;;;;33.20;16.85;;;2.00;99.90;;;;;;5101017;27;20205;-48
2022/02/01 00:33:08;;;;;;;27.90;15.95;;;2.10;99.90;;;;;;5101043;28;20191;-46
2022/02/01 00:37:30;;;;;;;33.50;18.50;;;2.10;99.90;;;;;;5099740;27;20604;-48
2022/02/01 00:39:59;;;;;;;35.45;16.45;;;2.10;99.90;;;;;;5101320;28;20202;-52
2022/02/01 00:42:26;;;;;;;34.80;18.40;;;2.20;99.90;;;;;;5100054;28;20194;-48
2022/02/01 00:44:53;;;;;;;40.35;18.75;;;2.20;99.90;;;;;;5101215;28;20198;-51
2022/02/01 00:47:21;;;;;;;39.10;16.58;;;2.30;99.90;;;;;;5100958;28;20225;-49
2022/02/01 00:49:49;;;;;;;35.15;14.77;;;2.20;99.90;;;;;;5101146;28;20202;-52
2022/02/01 00:52:16;;;;;;;31.40;14.88;;;2.20;99.90;;;;;;5101009;27;20210;-47
2022/02/01 00:54:43;;;;;;;30.38;16.50;;;2.10;99.90;;;;;;5101685;28;20457;-49
2022/02/01 00:57:13;;;;;;;31.13;15.40;;;2.10;99.90;;;;;;5103850;28;20281;-45
2022/02/01 00:59:40;;;;;;;24.88;15.20;;;2.00;99.90;;;;;;5100990;28;20202;-50
2022/02/01 01:02:08;;;;;;;24.25;14.10;;;2.20;99.90;;;;;;5100776;28;20190;-49
2022/02/01 01:04:36;;;;;;;33.70;13.88;;;2.10;99.90;;;;;;5100718;28;20519;-48
2022/02/01 01:07:04;;;;;;;30.00;17.08;;;2.10;99.90;;;;;;5101268;28;20225;-49
2022/02/01 01:09:31;;;;;;;30.73;15.82;;;2.20;99.90;;;;;;5100754;28;20509;-49
2022/02/01 01:11:58;;;;;;;28.48;14.57;;;2.20;99.90;;;;;;5101076;28;20206;-48
2022/02/01 01:18:36;;;;;;;29.80;16.70;;;2.20;99.90;;;;;;5100815;28;20493;-47
2022/02/01 01:44:57;;;;;;;21.63;13.15;;;2.20;99.90;;;;;;5105597;27;20204;-48
2022/02/01 01:53:13;;;;;;;20.38;10.70;;;2.00;99.90;;;;;;5105905;27;20221;-50
2022/02/01 01:55:44;;;;;;;22.63;12.00;;;2.00;99.90;;;;;;5105246;27;20313;-51
2022/02/01 01:58:13;;;;;;;23.55;11.25;;;2.00;99.90;;;;;;5106264;27;20194;-48
2022/02/01 02:03:09;;;;;;;28.27;13.77;;;1.90;99.90;;;;;;5104783;27;20201;-52
2022/02/01 02:05:37;;;;;;;22.52;11.48;;;2.00;99.90;;;;;;5104982;27;20432;-50
2022/02/01 02:08:05;;;;;;;19.88;10.90;;;1.90;99.90;;;;;;5105437;27;20394;-50
2022/02/01 02:10:39;;;;;;;18.55;10.43;;;1.90;99.90;;;;;;5103629;27;20252;-50
2022/02/01 02:16:01;;;;;;;24.17;12.75;;;1.90;99.90;;;;;;5106024;27;20248;-52
2022/02/01 02:18:34;;;;;;;22.13;11.45;;;1.80;99.90;;;;;;5105360;27;20259;-52
2022/02/01 02:21:05;;;;;;;17.77;9.85;;;1.80;99.90;;;;;;5105022;27;20559;-49
2022/02/01 02:23:32;;;;;;;20.25;11.05;;;1.80;99.90;;;;;;5103652;27;20496;-48
2022/02/01 02:26:02;;;;;;;30.83;12.98;;;1.90;99.90;;;;;;5105188;27;20230;-51
2022/02/01 02:28:29;;;;;;;22.13;10.82;;;1.90;99.90;;;;;;5104780;27;20205;-48
2022/02/01 02:30:57;;;;;;;20.00;9.82;;;1.90;99.90;;;;;;5105127;27;20536;-48
2022/02/01 02:33:24;;;;;;;16.48;10.73;;;1.90;99.90;;;;;;5104678;27;20218;-50
2022/02/01 02:36:12;;;;;;;28.27;11.75;;;1.90;99.90;;;;;;5104958;27;20455;-48
2022/02/01 02:38:47;;;;;;;20.35;12.07;;;1.90;99.90;;;;;;5104375;27;20209;-47
2022/02/01 02:46:34;;;;;;;18.25;11.13;;;1.80;99.90;;;;;;5104139;28;20257;-49
2022/02/01 02:49:05;;;;;;;20.95;11.73;;;1.90;99.90;;;;;;5104938;27;20212;-48
2022/02/01 02:51:33;;;;;;;22.00;11.30;;;1.90;99.90;;;;;;5103909;27;20259;-45
2022/02/01 02:54:16;;;;;;;17.40;10.57;;;2.00;99.90;;;;;;5105383;27;20217;-51
2022/02/01 02:56:45;;;;;;;21.45;8.68;;;2.10;99.90;;;;;;5106825;27;20217;-52
2022/02/01 02:59:13;;;;;;;27.90;11.75;;;2.10;99.90;;;;;;5105917;27;20243;-47
2022/02/01 03:01:43;;;;;;;22.95;9.85;;;2.00;99.90;;;;;;5104294;27;20194;-49
2022/02/01 03:04:10;;;;;;;21.15;9.85;;;2.00;99.90;;;;;;5105848;27;20187;-48
2022/02/01 03:06:38;;;;;;;24.80;10.52;;;2.00;99.90;;;;;;5110477;27;20218;-51
2022/02/01 03:09:06;;;;;;;21.02;11.57;;;2.10;99.90;;;;;;5105630;27;20210;-47
2022/02/01 03:11:33;;;;;;;18.60;10.93;;;1.90;99.90;;;;;;5104036;27;20289;-50
2022/02/01 03:14:03;;;;;;;23.33;11.57;;;2.00;99.90;;;;;;5105459;27;20424;-50
2022/02/01 03:21:47;;;;;;;23.55;12.45;;;2.10;99.90;;;;;;5104702;27;20501;-50
2022/02/01 03:24:15;;;;;;;24.45;11.73;;;2.10;99.90;;;;;;5103962;27;20195;-51
2022/02/01 03:26:42;;;;;;;27.85;12.40;;;2.10;99.90;;;;;;5104004;27;20555;-51
2022/02/01 03:29:09;;;;;;;27.48;14.40;;;2.20;99.90;;;;;;5103745;27;20240;-47
2022/02/01 03:31:36;;;;;;;31.15;12.88;;;2.10;99.90;;;;;;5103736;27;20255;-51
2022/02/01 03:34:04;;;;;;;20.88;11.95;;;2.00;99.90;;;;;;5103553;27;20197;-48
2022/02/01 03:36:31;;;;;;;22.02;12.95;;;2.00;99.90;;;;;;5105337;27;20218;-50
2022/02/01 03:38:59;;;;;;;26.45;12.77;;;2.10;99.90;;;;;;5104850;27;20243;-49
2022/02/01 03:41:27;;;;;;;26.30;12.63;;;2.00;99.90;;;;;;5103184;27;20217;-50
2022/02/01 03:43:55;;;;;;;28.40;12.30;;;1.90;99.90;;;;;;5103895;27;20201;-50
2022/02/01 03:46:23;;;;;;;19.27;13.15;;;2.00;99.90;;;;;;5103108;28;20233;-48
2022/02/01 03:48:50;;;;;;;31.33;12.48;;;2.00;99.90;;;;;;5102592;27;20206;-50
2022/02/01 03:51:17;;;;;;;22.35;11.80;;;1.90;99.90;;;;;;5103148;27;20202;-51
2022/02/01 03:53:45;;;;;;;27.77;12.43;;;1.90;99.90;;;;;;5104649;27;21492;-48
2022/02/01 03:56:13;;;;;;;27.27;13.60;;;2.00;99.90;;;;;;5103147;27;20270;-52
2022/02/01 03:58:40;;;;;;;27.00;12.80;;;2.00;99.90;;;;;;5101996;28;20427;-53
2022/02/01 04:01:08;;;;;;;29.80;11.23;;;1.90;99.90;;;;;;5103813;27;20248;-47
2022/02/01 04:03:35;;;;;;;28.10;11.55;;;1.90;99.90;;;;;;5106697;27;20194;-51
2022/02/01 04:06:03;;;;;;;25.70;12.90;;;1.90;99.90;;;;;;5104992;27;20228;-47
2022/02/01 04:08:30;;;;;;;27.23;14.65;;;1.90;99.90;;;;;;5103984;27;20202;-45
2022/02/01 04:10:57;;;;;;;27.98;12.32;;;1.90;99.90;;;;;;5105182;27;20202;-48
2022/02/01 04:13:24;;;;;;;22.08;10.75;;;2.00;99.90;;;;;;5107097;27;20198;-47
2022/02/01 04:15:52;;;;;;;20.45;10.60;;;1.80;99.90;;;;;;5106026;27;20440;-49
2022/02/01 04:18:19;;;;;;;20.63;11.07;;;1.90;99.90;;;;;;5102637;27;20195;-50
2022/02/01 04:20:46;;;;;;;19.55;10.20;;;1.90;99.90;;;;;;5106249;27;20198;-48
2022/02/01 04:23:13;;;;;;;25.30;12.05;;;1.90;99.90;;;;;;5106361;27;20547;-49
2022/02/01 04:25:41;;;;;;;24.95;11.15;;;1.90;99.90;;;;;;5105233;27;20264;-49
2022/02/01 04:28:08;;;;;;;31.55;10.40;;;1.90;99.90;;;;;;5103686;27;20198;-49
2022/02/01 04:30:35;;;;;;;21.13;9.23;;;1.70;99.90;;;;;;5102801;27;20194;-47
2022/02/01 04:33:07;;;;;;;26.30;11.85;;;1.70;99.90;;;;;;5104523;27;20196;-47
2022/02/01 04:35:35;;;;;;;15.73;9.45;;;1.70;99.90;;;;;;5103058;27;20225;-49
2022/02/01 04:38:02;;;;;;;19.13;11.55;;;1.70;99.90;;;;;;5104614;27;20431;-47
2022/02/01 04:40:33;;;;;;;15.88;10.15;;;1.70;99.90;;;;;;5102739;27;20216;-46
2022/02/01 04:43:03;;;;;;;21.52;10.18;;;1.80;99.90;;;;;;5104462;28;20239;-50
2022/02/01 04:45:31;;;;;;;19.05;9.70;;;1.70;99.90;;;;;;5102505;27;20442;-47
2022/02/01 04:47:58;;;;;;;20.27;10.32;;;1.70;99.90;;;;;;5110852;27;20236;-50
2022/02/01 04:50:29;;;;;;;22.10;12.05;;;1.60;99.90;;;;;;5106513;28;20558;-51
2022/02/01 04:52:56;;;;;;;19.95;10.60;;;1.80;99.90;;;;;;5104506;28;20222;-48
2022/02/01 04:55:36;;;;;;;27.17;11.07;;;1.80;99.90;;;;;;5107769;28;20259;-52
2022/02/01 04:58:04;;;;;;;25.80;11.45;;;1.70;99.90;;;;;;5104624;28;20196;-48
2022/02/01 05:00:31;;;;;;;25.52;9.57;;;1.80;99.90;;;;;;5102796;28;20198;-50
2022/02/01 05:03:00;;;;;;;19.42;10.10;;;1.80;99.90;;;;;;5104386;28;20431;-48
2022/02/01 05:05:28;;;;;;;24.58;9.45;;;1.70;99.90;;;;;;5102995;28;20321;-51
2022/02/01 05:08:04;;;;;;;21.17;10.43;;;1.80;99.90;;;;;;5104216;28;20202;-51
2022/02/01 05:10:33;;;;;;;25.27;12.85;;;1.80;99.90;;;;;;5102698;28;20418;-48
2022/02/01 05:16:00;;;;;;;28.95;13.55;;;1.90;99.90;;;;;;5104703;28;20525;-49
2022/02/01 05:18:31;;;;;;;21.35;10.70;;;1.80;99.90;;;;;;5103006;28;20209;-49
2022/02/01 05:21:08;;;;;;;22.75;11.07;;;1.80;99.90;;;;;;5106377;28;20202;-47
2022/02/01 05:23:35;;;;;;;19.67;10.15;;;1.80;99.90;;;;;;5103144;28;20362;-49
2022/02/01 05:26:04;;;;;;;23.73;12.07;;;1.80;99.90;;;;;;5104568;28;20280;-49
2022/02/01 05:28:31;;;;;;;26.92;11.95;;;1.80;99.90;;;;;;5106227;28;20423;-50
2022/02/01 05:31:02;;;;;;;23.60;9.82;;;1.80;99.90;;;;;;5106102;28;20202;-47
2022/02/01 05:33:33;;;;;;;20.73;10.73;;;1.80;99.90;;;;;;5103289;28;20198;-50
2022/02/01 05:36:04;;;;;;;19.75;10.65;;;1.80;99.90;;;;;;5104420;28;20231;-51
2022/02/01 05:38:32;;;;;;;34.00;13.15;;;1.80;99.90;;;;;;5103246;28;20194;-51
2022/02/01 05:41:00;;;;;;;14.90;9.23;;;1.80;99.90;;;;;;5104096;28;20199;-47
2022/02/01 05:43:28;;;;;;;15.45;9.68;;;1.70;99.90;;;;;;5101485;28;20214;-51
2022/02/01 05:45:57;;;;;;;27.67;12.90;;;1.80;99.90;;;;;;5103993;28;20226;-50
2022/02/01 05:48:26;;;;;;;25.33;12.43;;;1.60;99.90;;;;;;5103178;28;20259;-49
2022/02/01 05:50:55;;;;;;;35.97;10.68;;;1.50;99.90;;;;;;5104537;28;20264;-49
2022/02/01 05:53:24;;;;;;;20.58;10.40;;;1.50;99.90;;;;;;5102783;28;20251;-50
2022/02/01 05:55:51;;;;;;;25.65;12.77;;;1.60;99.90;;;;;;5104413;28;20389;-51
2022/02/01 05:58:20;;;;;;;22.92;12.38;;;1.90;99.90;;;;;;5102590;28;20195;-51
2022/02/01 06:00:48;;;;;;;29.95;11.25;;;2.10;99.90;;;;;;5105172;28;20214;-49
2022/02/01 06:03:16;;;;;;;29.23;14.05;;;2.00;99.90;;;;;;5103402;28;20238;-51
2022/02/01 06:05:43;;;;;;;21.50;11.40;;;2.00;99.90;;;;;;5101718;28;20224;-49
2022/02/01 06:08:11;;;;;;;22.58;11.93;;;1.90;99.90;;;;;;5103171;28;20198;-47
2022/02/01 06:10:39;;;;;;;17.33;10.43;;;1.70;99.90;;;;;;5104712;28;20206;-47
2022/02/01 06:13:06;;;;;;;30.67;11.45;;;1.50;99.90;;;;;;5110050;27;20226;-48
2022/02/01 06:15:35;;;;;;;21.45;10.93;;;1.50;99.90;;;;;;5109552;27;20225;-49
2022/02/01 06:18:04;;;;;;;14.50;9.43;;;1.60;99.90;;;;;;5108020;27;20238;-49
2022/02/01 06:20:32;;;;;;;18.65;8.75;;;1.50;99.90;;;;;;5106313;27;20196;-48
2022/02/01 06:22:59;;;;;;;11.73;7.43;;;1.40;99.90;;;;;;5107870;27;20198;-50
2022/02/01 06:26:09;;;;;;;24.40;9.30;;;1.40;99.90;;;;;;5106715;27;20225;-50
2022/02/01 06:28:20;;;;;;;20.40;8.48;;;1.50;99.90;;;;;;5108707;27;20198;-52
2022/02/01 06:30:48;;;;;;;14.07;7.70;;;1.50;99.90;;;;;;5116726;27;20221;-51
2022/02/01 06:33:17;;;;;;;9.95;7.13;;;1.40;99.90;;;;;;5109722;27;20208;-52
2022/02/01 06:35:44;;;;;;;17.70;8.68;;;1.50;99.90;;;;;;5109801;27;20253;-47
2022/02/01 06:38:13;;;;;;;14.40;7.65;;;1.50;99.90;;;;;;5106349;27;20515;-52
2022/02/01 06:40:45;;;;;;;10.50;7.20;;;1.70;99.90;;;;;;5120271;27;20201;-47
2022/02/01 06:43:15;;;;;;;16.90;6.93;;;1.60;99.90;;;;;;5109015;27;20194;-50
2022/02/01 06:45:43;;;;;;;15.65;6.18;;;1.60;99.90;;;;;;5109747;27;20218;-48
2022/02/01 06:48:12;;;;;;;15.55;7.70;;;1.70;99.90;;;;;;5105468;27;20221;-46
2022/02/01 06:50:44;;;;;;;19.15;8.88;;;2.10;99.90;;;;;;5106574;27;20212;-48
2022/02/01 06:53:12;;;;;;;25.25;8.52;;;2.40;99.90;;;;;;5106025;27;20388;-52
2022/02/01 06:58:13;;;;;;;10.98;7.60;;;2.50;99.90;;;;;;5106845;27;20433;-47
2022/02/01 07:00:43;;;;;;;23.23;7.95;;;2.60;99.90;;;;;;5113660;27;20204;-51
2022/02/01 07:03:11;;;;;;;12.60;6.50;;;2.60;99.90;;;;;;5106017;27;20416;-52
2022/02/01 07:05:39;;;;;;;13.52;7.20;;;2.70;99.90;;;;;;5107772;27;20198;-48
2022/02/01 07:08:06;;;;;;;15.88;9.35;;;2.70;99.90;;;;;;5108456;27;20401;-47
2022/02/01 07:10:34;;;;;;;22.42;11.77;;;2.70;99.90;;;;;;5109825;27;20202;-50
2022/02/01 07:13:01;;;;;;;24.90;10.02;;;2.50;99.90;;;;;;5107968;27;20507;-49
2022/02/01 07:15:29;;;;;;;21.83;9.38;;;2.40;99.90;;;;;;5102664;28;20213;-49
2022/02/01 07:17:56;;;;;;;14.88;10.80;;;2.40;99.90;;;;;;5104908;27;20231;-50
2022/02/01 07:20:24;;;;;;;16.05;11.25;;;2.20;99.90;;;;;;5101068;27;20202;-47
2022/02/01 07:22:51;;;;;;;28.45;13.90;;;2.10;99.90;;;;;;5107302;27;20203;-50
2022/02/01 07:25:30;;;;;;;27.30;10.70;;;2.20;99.90;;;;;;5105802;27;20206;-48
2022/02/01 07:28:05;;;;;;;22.92;10.05;;;2.20;99.90;;;;;;5105292;27;20208;-49
2022/02/01 07:30:32;;;;;;;20.75;11.32;;;2.10;99.90;;;;;;5105506;27;20202;-49
2022/02/01 07:33:02;;;;;;;26.02;9.90;;;2.10;99.90;;;;;;5107679;27;20195;-48
2022/02/01 07:35:32;;;;;;;20.25;10.73;;;2.20;99.90;;;;;;5105998;27;20198;-47
2022/02/01 07:38:00;;;;;;;23.70;9.65;;;2.30;99.90;;;;;;5107505;27;20207;-50
2022/02/01 07:40:27;;;;;;;25.30;11.18;;;2.40;99.90;;;;;;5105899;27;20261;-48
2022/02/01 07:42:55;;;;;;;24.27;11.38;;;2.30;99.90;;;;;;5107605;27;20205;-53
2022/02/01 07:45:27;;;;;;;18.67;10.13;;;2.50;99.90;;;;;;5105438;27;20194;-49
2022/02/01 07:47:59;;;;;;;17.30;11.30;;;2.40;99.90;;;;;;5108398;27;20203;-48
2022/02/01 07:50:27;;;;;;;20.50;9.27;;;2.30;99.90;;;;;;5106471;27;20218;-48
2022/02/01 07:52:55;;;;;;;18.80;9.00;;;2.40;99.90;;;;;;5108337;27;20202;-50
2022/02/01 07:55:23;;;;;;;20.05;10.20;;;2.30;99.90;;;;;;5106820;27;20496;-47
2022/02/01 07:57:51;;;;;;;18.90;11.45;;;2.10;99.90;;;;;;5110109;27;20218;-47
2022/02/01 08:00:18;;;;;;;14.38;9.70;;;2.20;99.90;;;;;;5107859;27;20191;-48
2022/02/01 08:02:49;;;;;;;27.45;12.02;;;2.30;99.90;;;;;;5110722;27;20237;-47
2022/02/01 08:05:17;;;;;;;21.08;9.20;;;2.30;99.90;;;;;;5136296;27;20245;-50
2022/02/01 08:07:45;;;;;;;15.98;9.43;;;2.20;99.90;;;;;;5143259;27;20224;-48
2022/02/01 08:10:15;;;;;;;22.42;10.15;;;2.20;99.90;;;;;;5145463;27;20264;-51
2022/02/01 08:20:23;;;;;;;30.30;12.15;;;2.20;99.90;;;;;;5104960;27;20198;-50
2022/02/01 08:23:02;;;;;;;24.58;8.68;;;2.20;99.90;;;;;;5106732;27;20197;-50
2022/02/01 08:25:33;;;;;;;12.85;7.13;;;2.20;99.90;;;;;;5104514;27;20263;-49
2022/02/01 08:28:06;;;;;;;13.73;7.80;;;2.20;99.90;;;;;;5106430;27;20209;-48
2022/02/01 08:30:33;;;;;;;22.90;8.98;;;2.30;99.90;;;;;;5104291;27;20422;-47
2022/02/01 08:33:02;;;;;;;24.67;11.15;;;2.20;99.90;;;;;;5106749;27;20209;-48
2022/02/01 08:35:29;;;;;;;17.38;7.47;;;2.20;99.90;;;;;;5103771;27;20207;-47
2022/02/01 08:38:16;;;;;;;16.52;9.48;;;2.30;99.90;;;;;;5104528;27;20187;-50
2022/02/01 08:40:49;;;;;;;13.45;8.18;;;2.40;99.90;;;;;;5103640;27;20304;-52
2022/02/01 08:43:17;;;;;;;16.88;7.30;;;2.60;99.90;;;;;;5104967;27;20198;-48
2022/02/01 08:45:47;;;;;;;16.23;8.77;;;2.70;99.90;;;;;;5103211;27;20222;-49
2022/02/01 08:48:16;;;;;;;9.68;7.13;;;2.90;99.90;;;;;;5104741;28;20211;-47
2022/02/01 08:50:43;;;;;;;12.43;6.60;;;3.00;99.90;;;;;;5104813;28;20209;-51
2022/02/01 08:55:50;;;;;;;13.00;7.32;;;3.60;99.90;;;;;;5105421;27;20262;-47
2022/02/01 08:58:18;;;;;;;13.35;6.78;;;3.80;99.90;;;;;;5106903;28;20260;-52
2022/02/01 09:00:45;;;;;;;11.32;7.20;;;4.00;99.90;;;;;;5106307;28;20209;-50
2022/02/01 09:03:13;;;;;;;17.83;7.05;;;4.20;99.90;;;;;;5107176;27;20456;-48
2022/02/01 09:05:45;;;;;;;15.00;7.78;;;4.20;99.90;;;;;;5104676;28;20645;-47
2022/02/01 09:08:12;;;;;;;13.38;6.57;;;4.50;99.90;;;;;;5105261;27;20221;-51
2022/02/01 09:10:40;;;;;;;8.27;6.15;;;4.30;99.90;;;;;;5104589;28;20206;-49
2022/02/01 09:13:08;;;;;;;19.52;7.97;;;4.20;99.90;;;;;;5104390;28;20199;-52
2022/02/01 09:15:36;;;;;;;14.20;7.65;;;4.20;99.90;;;;;;5104540;28;20396;-48
2022/02/01 09:18:04;;;;;;;8.82;6.90;;;4.20;99.90;;;;;;5108942;28;20224;-50
2022/02/01 09:20:32;;;;;;;10.23;6.57;;;4.10;99.90;;;;;;5108279;28;20205;-49
2022/02/01 09:23:00;;;;;;;11.88;7.07;;;3.90;99.90;;;;;;5107694;28;20199;-47
2022/02/01 09:25:28;;;;;;;9.77;6.93;;;3.80;99.90;;;;;;5104432;28;20224;-52
2022/02/01 09:27:55;;;;;;;15.15;6.53;;;3.60;99.90;;;;;;5114311;28;20207;-49
2022/02/01 09:30:23;;;;;;;10.98;6.80;;;3.50;99.90;;;;;;5106994;28;20201;-50
2022/02/01 09:32:51;;;;;;;11.30;6.47;;;3.50;99.90;;;;;;5108718;28;20203;-48
2022/02/01 09:35:19;;;;;;;11.23;5.90;;;3.40;99.90;;;;;;5105305;28;20199;-49
2022/02/01 09:37:48;;;;;;;14.40;6.82;;;3.40;99.90;;;;;;5105703;28;20546;-53
2022/02/01 09:40:36;;;;;;;15.50;7.75;;;3.50;99.90;;;;;;5103667;28;20376;-50
2022/02/01 09:43:03;;;;;;;12.38;7.60;;;3.60;99.90;;;;;;5106581;28;20194;-48
2022/02/01 09:45:36;;;;;;;12.27;7.32;;;3.70;99.90;;;;;;5104317;28;20235;-51
2022/02/01 09:48:06;;;;;;;11.73;6.40;;;3.80;99.90;;;;;;5113702;27;20207;-51
2022/02/01 09:50:34;;;;;;;15.23;6.88;;;3.90;99.90;;;;;;5112728;27;20195;-49
2022/02/01 09:53:03;;;;;;;7.95;5.68;;;4.00;99.90;;;;;;5110695;27;20391;-48
2022/02/01 09:55:30;;;;;;;17.95;6.55;;;4.00;99.90;;;;;;5107875;27;20279;-53
2022/02/01 09:57:57;;;;;;;13.38;6.47;;;4.00;99.90;;;;;;5110404;27;20234;-50
2022/02/01 10:00:35;;;;;;;10.18;6.38;;;4.00;99.90;;;;;;5112174;27;20263;-48
2022/02/01 10:03:05;;;;;;;12.30;5.95;;;4.00;99.90;;;;;;5110282;27;20322;-48
2022/02/01 10:05:35;;;;;;;10.10;5.75;;;4.00;99.90;;;;;;5110254;27;20270;-50
2022/02/01 10:08:03;;;;;;;8.77;5.32;;;4.00;99.90;;;;;;5110917;27;20203;-51
2022/02/01 10:10:33;;;;;;;9.13;6.40;;;3.90;99.90;;;;;;5108650;27;20263;-47
2022/02/01 10:13:23;;;;;;;16.73;8.40;;;3.90;99.90;;;;;;5115061;27;20204;-47
2022/02/01 10:16:01;;;;;;;12.38;6.40;;;4.00;99.90;;;;;;5112792;27;20220;-46
2022/02/01 10:18:32;;;;;;;10.05;7.82;;;4.10;99.90;;;;;;5107383;27;20222;-47
2022/02/01 10:21:13;;;;;;;8.35;6.03;;;4.20;99.90;;;;;;5119023;27;20433;-48
2022/02/01 10:23:43;;;;;;;10.55;6.43;;;4.00;99.90;;;;;;5106990;27;20408;-53
2022/02/01 10:26:23;;;;;;;7.72;6.25;;;3.80;99.90;;;;;;5113914;27;20215;-53
2022/02/01 10:29:05;;;;;;;15.27;7.72;;;3.50;99.90;;;;;;5127176;27;20199;-48
2022/02/01 10:36:57;;;;;;;8.45;6.38;;;3.80;99.90;;;;;;5143812;27;20286;-46
2022/02/01 10:39:29;;;;;;;10.23;6.38;;;3.70;99.90;;;;;;5135174;27;20200;-49
2022/02/01 10:42:04;;;;;;;11.88;7.18;;;3.70;99.90;;;;;;5122513;27;20202;-51
2022/02/01 10:44:50;;;;;;;7.53;5.88;;;3.50;99.90;;;;;;5131997;27;20462;-49
2022/02/01 10:47:42;;;;;;;10.52;6.95;;;3.50;99.90;;;;;;5131413;27;20238;-48
2022/02/01 10:50:16;;;;;;;12.15;6.28;;;3.50;99.90;;;;;;5109005;27;20206;-52
2022/02/01 10:52:48;;;;;;;8.15;5.47;;;3.60;99.90;;;;;;5124477;27;20190;-46
2022/02/01 10:55:18;;;;;;;8.20;5.18;;;3.60;99.90;;;;;;5102848;28;20556;-53
2022/02/01 10:57:46;;;;;;;8.55;5.22;;;3.60;99.90;;;;;;5102022;28;20407;-50
2022/02/01 11:00:18;;;;;;;6.45;4.53;;;3.70;99.90;;;;;;5102488;28;20431;-51
2022/02/01 11:02:47;;;;;;;4.55;3.70;;;3.90;99.90;;;;;;5106467;27;20205;-51
2022/02/01 11:05:17;;;;;;;5.75;4.88;;;3.90;99.90;;;;;;5113552;27;20202;-53
2022/02/01 11:08:06;;;;;;;7.90;3.80;;;3.90;99.90;;;;;;5118101;27;20224;-52
2022/02/01 11:10:35;;;;;;;6.97;4.95;;;3.90;99.90;;;;;;5135087;27;20200;-50
2022/02/01 11:13:07;;;;;;;7.47;4.70;;;3.90;99.90;;;;;;5127666;27;20249;-47
2022/02/01 11:15:35;;;;;;;5.65;4.40;;;3.70;99.90;;;;;;5133633;27;20368;-50
2022/02/01 11:18:12;;;;;;;6.35;4.45;;;3.60;99.90;;;;;;5137816;27;20222;-52
2022/02/01 11:20:44;;;;;;;4.95;3.33;;;3.60;99.90;;;;;;5109912;27;20437;-49
2022/02/01 11:23:20;;;;;;;10.25;5.57;;;3.60;99.90;;;;;;5114006;27;20253;-47
2022/02/01 11:25:56;;;;;;;6.45;4.45;;;3.80;99.90;;;;;;5135437;27;20226;-50
2022/02/01 11:28:46;;;;;;;11.30;4.97;;;4.00;99.90;;;;;;5129109;27;20497;-54
2022/02/01 11:31:14;;;;;;;5.40;4.10;;;4.00;99.90;;;;;;5114321;27;20200;-48
2022/02/01 11:33:44;;;;;;;6.78;4.55;;;4.00;99.90;;;;;;5134382;27;20200;-49
2022/02/01 11:36:13;;;;;;;9.95;3.75;;;4.10;99.90;;;;;;5136131;27;20291;-47
2022/02/01 11:39:05;;;;;;;6.82;4.47;;;4.00;99.90;;;;;;5127479;27;20232;-52
2022/02/01 11:41:36;;;;;;;6.90;4.18;;;4.10;99.90;;;;;;5142401;27;20301;-48
2022/02/01 11:44:12;;;;;;;13.77;4.20;;;4.20;99.90;;;;;;5142449;27;20222;-49
2022/02/01 11:47:19;;;;;;;6.78;3.90;;;4.20;99.90;;;;;;5142415;27;20215;-51
2022/02/01 11:50:10;;;;;;;10.93;4.40;;;4.10;99.90;;;;;;5131256;27;20195;-50
2022/02/01 11:52:47;;;;;;;11.48;8.73;;;3.90;99.90;;;;;;5142271;27;20201;-52
2022/02/01 11:55:16;;;;;;;6.75;3.58;;;3.90;99.90;;;;;;5142704;27;20203;-50
2022/02/01 11:58:04;;;;;;;5.80;3.63;;;3.90;99.90;;;;;;5142549;27;20219;-53
2022/02/01 12:00:39;;;;;;;5.75;4.70;;;4.00;99.90;;;;;;5142083;27;20525;-48
2022/02/01 12:03:16;;;;;;;7.93;5.47;;;4.00;99.90;;;;;;5142604;27;20195;-51
2022/02/01 12:05:53;;;;;;;4.75;3.55;;;4.00;99.90;;;;;;5142169;27;20244;-51
2022/02/01 12:08:27;;;;;;;9.70;5.03;;;3.80;99.90;;;;;;5117673;27;20375;-48
2022/02/01 12:10:58;;;;;;;6.00;3.20;;;3.80;99.90;;;;;;5133423;27;20244;-50
2022/02/01 12:13:27;;;;;;;8.43;4.28;;;3.80;99.90;;;;;;5142671;27;20207;-49
2022/02/01 12:15:59;;;;;;;5.68;4.15;;;3.90;99.90;;;;;;5142149;27;20264;-48
2022/02/01 12:18:39;;;;;;;6.38;4.28;;;4.10;99.90;;;;;;5142103;27;20256;-48
2022/02/01 12:21:42;;;;;;;7.55;4.30;;;4.10;99.90;;;;;;5133590;27;20255;-51
2022/02/01 12:24:10;;;;;;;8.55;3.35;;;4.20;99.90;;;;;;5116472;27;20205;-50
2022/02/01 12:26:40;;;;;;;11.57;4.28;;;4.20;99.90;;;;;;5121650;28;20410;-51
2022/02/01 12:29:10;;;;;;;7.47;4.18;;;4.20;99.90;;;;;;5120860;28;20223;-50
2022/02/01 12:31:39;;;;;;;4.05;3.20;;;4.20;99.90;;;;;;5121191;28;20204;-50
2022/02/01 12:34:13;;;;;;;4.93;3.25;;;4.40;99.90;;;;;;5120477;28;20194;-49
2022/02/01 12:36:50;;;;;;;6.68;3.50;;;4.40;99.90;;;;;;5121143;28;20319;-48
2022/02/01 12:39:32;;;;;;;3.70;3.10;;;4.50;99.90;;;;;;5121022;28;20210;-51
2022/02/01 12:42:15;;;;;;;8.65;3.70;;;4.50;99.90;;;;;;5120558;28;20194;-50
2022/02/01 12:47:22;;;;;;;11.82;4.00;;;4.40;99.90;;;;;;5120966;28;20295;-48
2022/02/01 12:50:12;;;;;;;7.68;3.58;;;4.30;99.90;;;;;;5125954;28;20233;-51
2022/02/01 12:52:39;;;;;;;3.90;2.88;;;4.20;99.90;;;;;;5124554;28;20193;-48
2022/02/01 12:55:09;;;;;;;10.27;3.83;;;4.20;99.90;;;;;;5121390;28;20210;-50
2022/02/01 12:58:03;;;;;;;9.82;4.55;;;4.20;99.90;;;;;;5120626;28;20227;-49
2022/02/01 13:00:32;;;;;;;3.25;2.95;;;4.20;99.90;;;;;;5121106;28;20395;-47
2022/02/01 13:03:02;;;;;;;4.90;3.15;;;4.20;99.90;;;;;;5120884;28;20376;-48
2022/02/01 13:05:31;;;;;;;7.05;4.10;;;4.00;99.90;;;;;;5126909;28;20241;-47
2022/02/01 13:08:23;;;;;;;6.03;3.45;;;3.90;99.90;;;;;;5141592;28;20230;-52
2022/02/01 13:16:23;;;;;;;4.13;3.25;;;3.80;99.90;;;;;;5123881;28;20234;-50
2022/02/01 13:21:40;;;;;;;5.88;3.35;;;3.80;99.90;;;;;;5129151;27;20194;-49
2022/02/01 13:24:11;;;;;;;7.68;4.20;;;3.90;99.90;;;;;;5119360;27;20199;-47
2022/02/01 13:26:58;;;;;;;4.35;2.75;;;3.90;99.90;;;;;;5106402;27;20220;-50
2022/02/01 13:29:25;;;;;;;7.85;3.97;;;3.90;99.90;;;;;;5105235;27;20242;-49
2022/02/01 13:31:53;;;;;;;15.35;3.88;;;4.00;99.90;;;;;;5105437;27;20201;-47
2022/02/01 13:34:30;;;;;;;5.95;4.13;;;4.10;99.90;;;;;;5110306;27;20498;-50
2022/02/01 13:37:05;;;;;;;7.72;4.15;;;4.10;99.90;;;;;;5107877;27;20288;-53
2022/02/01 13:39:33;;;;;;;5.95;4.05;;;4.10;99.90;;;;;;5130612;27;20195;-48
2022/02/01 13:42:05;;;;;;;9.38;4.95;;;4.10;99.90;;;;;;5123826;27;20205;-48
2022/02/01 13:44:54;;;;;;;8.90;4.70;;;4.20;99.90;;;;;;5115854;28;20254;-52
2022/02/01 13:47:38;;;;;;;7.45;3.90;;;4.40;99.90;;;;;;5109931;28;20243;-46
2022/02/01 13:50:09;;;;;;;8.00;4.43;;;4.40;99.90;;;;;;5114421;27;20204;-48
2022/02/01 13:52:38;;;;;;;6.53;4.95;;;4.30;99.90;;;;;;5115446;27;20360;-52
2022/02/01 13:55:20;;;;;;;4.15;3.63;;;4.40;99.90;;;;;;5113276;27;20203;-50
2022/02/01 13:57:48;;;;;;;7.60;3.08;;;4.30;99.90;;;;;;5117341;28;20227;-50
2022/02/01 14:00:15;;;;;;;7.18;3.83;;;4.20;99.90;;;;;;5116529;27;20511;-48
2022/02/01 14:02:51;;;;;;;6.93;4.80;;;4.00;99.90;;;;;;5118881;28;20249;-51
2022/02/01 14:05:30;;;;;;;3.42;2.85;;;4.00;99.90;;;;;;5115462;28;20213;-51
2022/02/01 14:26:57;;;;;;;15.38;4.25;;;4.00;99.90;;;;;;5112969;28;20220;-46
2022/02/01 14:34:30;;;;;;;9.93;3.92;;;3.90;99.90;;;;;;5115810;28;20220;-49
2022/02/01 14:37:06;;;;;;;8.20;5.13;;;3.90;99.90;;;;;;5116616;28;20528;-51
2022/02/01 14:45:25;;;;;;;4.90;3.63;;;4.00;99.90;;;;;;5079083;28;20213;-47
2022/02/01 14:47:52;;;;;;;7.15;4.15;;;4.10;99.90;;;;;;5114874;28;20250;-50
2022/02/01 14:50:19;;;;;;;10.30;3.45;;;4.10;99.90;;;;;;5115890;28;20196;-49
2022/02/01 14:52:47;;;;;;;5.20;3.45;;;4.20;99.90;;;;;;5113272;28;20260;-50
2022/02/01 14:55:15;;;;;;;10.55;3.80;;;4.20;99.90;;;;;;5114555;28;20192;-48
2022/02/01 15:14:19;;;;;;;6.97;3.22;;;4.00;99.90;;;;;;5108542;28;20253;-47
2022/02/01 15:16:46;;;;;;;6.43;3.67;;;4.10;99.90;;;;;;5114224;28;20295;-48
2022/02/01 15:19:13;;;;;;;8.00;3.10;;;4.30;99.90;;;;;;5120673;27;20231;-49
2022/02/01 15:21:41;;;;;;;8.63;2.30;;;4.20;99.90;;;;;;5112514;28;20215;-47
2022/02/01 15:24:08;;;;;;;6.95;3.25;;;4.30;99.90;;;;;;5118644;28;20525;-49
2022/02/01 15:26:35;;;;;;;5.88;3.63;;;4.50;99.90;;;;;;5120247;28;20228;-49
2022/02/01 15:29:03;;;;;;;12.98;5.15;;;4.50;99.90;;;;;;5118964;28;20208;-49
2022/02/01 15:31:31;;;;;;;6.45;3.30;;;4.50;99.90;;;;;;5120531;28;20261;-49
2022/02/01 15:33:58;;;;;;;7.63;4.40;;;4.40;99.90;;;;;;5114765;28;20209;-51